Time;durP1;ratioP1;P1;durP2;ratioP2;P2;SDS_P1;SDS_P2;PMS_P1;PMS_P2;Temp;Humidity;BMP_temperature;BMP_pressure;BME280_temperature;BME280_humidity;BME280_pressure;Samples;Min_cycle;Max_cycle;Signal;HPM_P1;HPM_P2
2024/01/01 00:00:17;;;;;;;;;;;;;;;22.75;36.80;99638.84;5015109;28;19925;-45
2024/01/01 00:02:42;;;;;;;;;;;;;;;22.71;36.60;99641.19;5008924;28;20434;-49
2024/01/01 00:05:08;;;;;;;;;;;;;;;22.65;36.65;99635.84;5024565;28;20012;-46
2024/01/01 00:07:33;;;;;;;;;;;;;;;22.61;36.87;99648.19;5023740;28;19939;-49
2024/01/01 00:09:58;;;;;;;;;;;;;;;22.58;36.75;99644.03;5020794;28;19924;-45
2024/01/01 00:12:23;;;;;;;;;;;;;;;22.53;37.01;99637.63;5032365;28;19920;-44
2024/01/01 00:14:48;;;;;;;;;;;;;;;22.50;37.03;99643.47;5019759;28;19953;-44
2024/01/01 00:17:14;;;;;;;;;;;;;;;22.48;37.07;99645.59;5006467;28;19981;-46
2024/01/01 00:19:39;;;;;;;;;;;;;;;22.43;36.90;99633.56;5032715;28;19912;-47
2024/01/01 00:22:04;;;;;;;;;;;;;;;22.41;36.85;99634.81;5025389;28;19921;-47
2024/01/01 00:24:30;;;;;;;;;;;;;;;22.37;36.97;99637.13;5024148;28;20284;-47
2024/01/01 00:26:55;;;;;;;;;;;;;;;22.34;37.15;99634.03;5021038;28;19913;-44
2024/01/01 00:29:20;;;;;;;;;;;;;;;22.32;36.97;99641.56;5043662;28;20003;-46
2024/01/01 00:31:45;;;;;;;;;;;;;;;22.28;37.06;99635.75;5019059;28;19971;-45
2024/01/01 00:34:10;;;;;;;;;;;;;;;22.27;36.83;99630.59;5049400;28;19965;-45
2024/01/01 00:36:36;;;;;;;;;;;;;;;22.24;37.35;99639.13;5017364;28;19918;-46
2024/01/01 00:39:01;;;;;;;;;;;;;;;22.20;37.28;99642.28;5032049;28;19917;-46
2024/01/01 00:41:26;;;;;;;;;;;;;;;22.19;37.00;99634.38;5020245;28;19937;-46
2024/01/01 00:43:51;;;;;;;;;;;;;;;22.18;37.34;99646.28;5031320;28;20299;-47
2024/01/01 00:46:16;;;;;;;;;;;;;;;22.16;36.94;99632.13;5068547;28;19948;-47
2024/01/01 00:48:42;;;;;;;;;;;;;;;22.14;37.21;99639.66;5034780;28;19935;-48
2024/01/01 00:51:07;;;;;;;;;;;;;;;22.12;36.94;99631.72;5034910;28;19927;-45
2024/01/01 00:53:33;;;;;;;;;;;;;;;22.10;37.16;99639.22;5030880;28;20000;-45
2024/01/01 00:55:58;;;;;;;;;;;;;;;22.07;37.08;99642.34;5024460;28;19947;-46
2024/01/01 00:58:23;;;;;;;;;;;;;;;22.05;36.98;99649.88;5024478;28;19922;-45
2024/01/01 01:00:49;;;;;;;;;;;;;;;22.04;37.23;99641.97;5017569;28;19935;-47
2024/01/01 01:03:14;;;;;;;;;;;;;;;22.01;37.08;99651.38;5010099;28;19913;-46
2024/01/01 01:05:39;;;;;;;;;;;;;;;22.00;37.21;99648.88;5033343;28;19913;-44
2024/01/01 01:08:04;;;;;;;;;;;;;;;;;;5028506;28;19918;-46
2024/01/01 01:10:29;;;;;;;;;;;;;;;21.95;36.86;99642.22;5013452;28;19918;-45
2024/01/01 01:12:55;;;;;;;;;;;;;;;21.94;36.93;99646.00;5022597;28;20004;-47
2024/01/01 01:15:21;;;;;;;;;;;;;;;21.92;37.18;99639.16;5036135;28;19913;-46
2024/01/01 01:17:46;;;;;;;;;;;;;;;21.89;37.10;99635.00;5044119;28;19935;-49
2024/01/01 01:20:12;;;;;;;;;;;;;;;21.89;37.12;99647.72;5026441;28;19917;-47
2024/01/01 01:22:37;;;;;;;;;;;;;;;21.87;37.12;99645.19;5020592;28;19914;-45
2024/01/01 01:25:02;;;;;;;;;;;;;;;21.85;37.07;99647.31;5010613;28;19921;-46
2024/01/01 01:27:27;;;;;;;;;;;;;;;21.83;37.09;99657.50;5016404;28;19953;-45
2024/01/01 01:29:53;;;;;;;;;;;;;;;21.81;37.16;99659.63;5040054;28;19912;-45
2024/01/01 01:32:18;;;;;;;;;;;;;;;21.82;37.08;99655.84;5023997;28;19948;-47
2024/01/01 01:34:43;;;;;;;;;;;;;;;21.80;37.24;99659.84;5013349;28;19952;-45
2024/01/01 01:37:08;;;;;;;;;;;;;;;21.77;37.52;99657.56;5032429;28;19917;-44
2024/01/01 01:39:33;;;;;;;;;;;;;;;21.76;37.15;99670.28;5031703;28;19921;-46
2024/01/01 01:41:59;;;;;;;;;;;;;;;21.74;37.24;99664.22;5010001;28;19947;-45
2024/01/01 01:44:24;;;;;;;;;;;;;;;21.73;37.23;99669.88;5027528;28;19920;-44
2024/01/01 01:46:49;;;;;;;;;;;;;;;21.70;37.19;99666.53;5067941;28;19912;-44
2024/01/01 01:49:14;;;;;;;;;;;;;;;21.69;37.08;99666.75;5009230;28;19925;-44
2024/01/01 01:51:39;;;;;;;;;;;;;;;21.66;37.22;99673.47;5069560;28;19914;-44
2024/01/01 01:54:04;;;;;;;;;;;;;;;21.66;37.47;99670.75;5040295;28;19952;-45
2024/01/01 01:56:30;;;;;;;;;;;;;;;21.64;37.24;99666.59;5020201;28;19921;-44
2024/01/01 01:58:55;;;;;;;;;;;;;;;21.62;37.28;99668.66;5017821;28;19924;-44
2024/01/01 02:01:20;;;;;;;;;;;;;;;21.60;37.23;99670.78;5037651;28;20122;-43
2024/01/01 02:03:45;;;;;;;;;;;;;;;21.59;37.58;99680.75;5014024;28;19914;-43
2024/01/01 02:06:11;;;;;;;;;;;;;;;21.59;37.22;99671.81;5017544;28;19975;-42
2024/01/01 02:08:37;;;;;;;;;;;;;;;21.57;37.23;99673.91;5024249;28;19914;-43
2024/01/01 02:11:02;;;;;;;;;;;;;;;21.55;37.35;99678.72;5044201;28;19917;-45
2024/01/01 02:13:28;;;;;;;;;;;;;;;21.54;37.37;99677.06;5060567;28;19937;-43
2024/01/01 02:15:53;;;;;;;;;;;;;;;21.53;37.31;99680.78;5041028;28;19941;-42
2024/01/01 02:18:19;;;;;;;;;;;;;;;21.52;37.39;99676.44;5023233;28;19974;-47
2024/01/01 02:20:44;;;;;;;;;;;;;;;21.50;37.53;99678.53;5011119;28;19916;-45
2024/01/01 02:23:09;;;;;;;;;;;;;;;21.49;37.49;99672.28;5077818;28;19921;-46
2024/01/01 02:25:34;;;;;;;;;;;;;;;21.46;37.51;99681.66;5061101;28;19914;-49
2024/01/01 02:28:00;;;;;;;;;;;;;;;21.45;37.63;99684.56;5021483;28;19939;-45
2024/01/01 02:30:25;;;;;;;;;;;;;;;21.44;37.32;99682.91;5039072;28;19914;-44
2024/01/01 02:32:50;;;;;;;;;;;;;;;21.43;37.58;99681.25;5022872;28;19942;-46
2024/01/01 02:35:15;;;;;;;;;;;;;;;20.99;37.39;99617.16;5012260;28;20011;-49
2024/01/01 02:37:40;;;;;;;;;;;;;;;21.38;37.52;99679.19;5087161;28;19924;-46
2024/01/01 02:40:08;;;;;;;;;;;;;;;21.37;37.42;99687.53;5032145;28;19913;-49
2024/01/01 02:42:33;;;;;;;;;;;;;;;21.35;37.56;99695.84;5020346;28;19913;-48
2024/01/01 02:44:58;;;;;;;;;;;;;;;21.34;37.29;99691.47;5033281;28;19938;-47
2024/01/01 02:47:23;;;;;;;;;;;;;;;21.34;37.41;99706.88;5024232;28;19914;-49
2024/01/01 02:49:49;;;;;;;;;;;;;;;21.31;37.65;99697.28;5015621;28;19932;-49
2024/01/01 02:52:14;;;;;;;;;;;;;;;21.30;37.58;99687.50;5011312;28;19913;-47
2024/01/01 02:54:39;;;;;;;;;;;;;;;21.28;37.49;99708.53;5010744;28;19960;-49
2024/01/01 02:57:05;;;;;;;;;;;;;;;21.27;37.45;99706.03;5029477;28;20292;-47
2024/01/01 02:59:30;;;;;;;;;;;;;;;21.25;37.72;99705.44;5018693;28;19932;-49
2024/01/01 03:01:55;;;;;;;;;;;;;;;21.23;37.63;99714.56;5039946;28;19987;-49
2024/01/01 03:04:20;;;;;;;;;;;;;;;21.22;37.65;99706.69;5010195;28;19917;-47
2024/01/01 03:06:46;;;;;;;;;;;;;;;21.21;37.78;99705.03;5007932;28;19938;-44
2024/01/01 03:09:11;;;;;;;;;;;;;;;21.19;37.62;99702.50;5022309;28;19918;-48
2024/01/01 03:11:36;;;;;;;;;;;;;;;21.18;37.71;99700.84;5031381;28;19914;-49
2024/01/01 03:14:01;;;;;;;;;;;;;;;21.16;37.62;99692.16;5007925;28;19969;-46
2024/01/01 03:16:26;;;;;;;;;;;;;;;21.15;37.64;99697.75;5029447;28;20311;-45
2024/01/01 03:18:51;;;;;;;;;;;;;;;21.14;37.68;99696.91;5038787;28;19920;-45
2024/01/01 03:21:17;;;;;;;;;;;;;;;21.12;38.00;99690.91;5010494;28;19960;-48
2024/01/01 03:23:45;;;;;;;;;;;;;;;21.10;37.71;99697.56;5018062;28;19913;-43
2024/01/01 03:26:10;;;;;;;;;;;;;;;21.09;37.77;99696.72;5035504;28;19921;-48
2024/01/01 03:28:36;;;;;;;;;;;;;;;21.08;37.77;99697.78;5015038;28;19914;-48
2024/01/01 03:31:01;;;;;;;;;;;;;;;21.06;38.06;99696.31;5018574;28;19940;-46
2024/01/01 03:33:32;;;;;;;;;;;;;;;21.04;37.85;99685.75;5030252;28;19914;-46
2024/01/01 03:35:57;;;;;;;;;;;;;;;21.03;37.98;99678.69;5010613;28;19961;-48
2024/01/01 03:38:22;;;;;;;;;;;;;;;21.02;37.83;99693.22;5026877;28;19929;-47
2024/01/01 03:40:48;;;;;;;;;;;;;;;21.01;38.12;99693.44;5037103;28;19949;-45
2024/01/01 03:43:13;;;;;;;;;;;;;;;20.98;38.09;99689.28;5069768;28;20328;-44
2024/01/01 03:45:39;;;;;;;;;;;;;;;20.97;37.88;99696.56;5010230;28;20020;-47
2024/01/01 03:48:04;;;;;;;;;;;;;;;20.94;38.14;99694.28;5036911;28;19909;-44
2024/01/01 03:50:29;;;;;;;;;;;;;;;20.94;38.27;99697.00;5062738;28;19912;-47
2024/01/01 03:52:55;;;;;;;;;;;;;;;20.93;38.39;99694.47;5010236;28;19920;-47
2024/01/01 03:55:20;;;;;;;;;;;;;;;20.91;38.13;99691.19;5051069;28;19936;-46
2024/01/01 03:57:45;;;;;;;;;;;;;;;20.89;38.09;99685.13;5028667;28;19949;-48
2024/01/01 04:00:11;;;;;;;;;;;;;;;20.88;38.01;99695.13;5006882;28;19957;-48
2024/01/01 04:02:37;;;;;;;;;;;;;;;20.87;37.86;99689.94;5017537;28;19914;-43
2024/01/01 04:05:02;;;;;;;;;;;;;;;20.85;38.18;99698.22;5020535;28;19929;-47
2024/01/01 04:07:28;;;;;;;;;;;;;;;20.83;38.20;99696.81;5072729;28;19918;-44
2024/01/01 04:09:53;;;;;;;;;;;;;;;20.82;38.27;99697.84;5050845;28;19921;-46
2024/01/01 04:12:18;;;;;;;;;;;;;;;20.81;38.29;99704.28;5037911;28;19913;-47
2024/01/01 04:14:43;;;;;;;;;;;;;;;20.80;38.34;99699.91;5014499;28;19913;-48
2024/01/01 04:17:09;;;;;;;;;;;;;;;20.77;38.15;99693.06;5019409;28;20004;-47
2024/01/01 04:19:35;;;;;;;;;;;;;;;20.75;38.22;99689.75;5032421;28;19912;-44
2024/01/01 04:22:00;;;;;;;;;;;;;;;20.74;38.23;99704.31;5026415;28;19921;-45
2024/01/01 04:24:25;;;;;;;;;;;;;;;20.74;38.18;99698.06;5027131;28;19912;-46
2024/01/01 04:26:50;;;;;;;;;;;;;;;20.71;38.40;99696.59;5038124;28;19944;-46
2024/01/01 04:29:16;;;;;;;;;;;;;;;20.69;38.37;99694.13;5025302;28;19934;-46
2024/01/01 04:31:41;;;;;;;;;;;;;;;20.69;38.40;99701.41;5013008;28;19970;-46
2024/01/01 04:34:06;;;;;;;;;;;;;;;20.67;38.45;99680.00;5025029;28;20147;-46
2024/01/01 04:36:31;;;;;;;;;;;;;;;20.66;38.47;99688.31;5033626;28;19920;-44
2024/01/01 04:38:56;;;;;;;;;;;;;;;20.65;38.40;99692.06;5029332;28;19949;-48
2024/01/01 04:41:22;;;;;;;;;;;;;;;20.64;38.43;99684.97;5030482;28;19972;-43
2024/01/01 04:43:47;;;;;;;;;;;;;;;20.62;38.53;99687.06;5025378;28;19921;-44
2024/01/01 04:46:12;;;;;;;;;;;;;;;20.61;38.45;99688.94;5014895;28;20536;-47
2024/01/01 04:48:37;;;;;;;;;;;;;;;20.60;38.49;99700.78;5017800;28;19934;-45
2024/01/01 04:51:03;;;;;;;;;;;;;;;20.58;38.58;99686.66;5035731;28;19914;-48
2024/01/01 04:53:29;;;;;;;;;;;;;;;20.59;38.45;99700.97;5011591;28;19921;-47
2024/01/01 04:55:54;;;;;;;;;;;;;;;20.57;38.39;99705.78;5020157;28;19921;-48
2024/01/01 04:58:19;;;;;;;;;;;;;;;20.57;38.28;99700.38;5032101;28;19913;-46
2024/01/01 05:00:44;;;;;;;;;;;;;;;20.55;38.51;99702.44;5025332;28;19918;-44
2024/01/01 05:03:09;;;;;;;;;;;;;;;20.55;38.48;99699.72;5016996;28;19921;-48
2024/01/01 05:05:35;;;;;;;;;;;;;;;20.54;38.44;99700.78;5030710;28;19912;-49
2024/01/01 05:08:00;;;;;;;;;;;;;;;20.52;38.45;99708.25;5037406;28;19912;-48
2024/01/01 05:10:25;;;;;;;;;;;;;;;20.51;38.61;99720.91;5017198;28;19921;-46
2024/01/01 05:12:52;;;;;;;;;;;;;;;20.50;38.53;99711.16;5037638;28;19935;-45
2024/01/01 05:15:17;;;;;;;;;;;;;;;20.49;38.49;99714.91;5063911;28;19919;-49
2024/01/01 05:17:42;;;;;;;;;;;;;;;20.47;38.55;99716.94;5010282;28;19914;-47
2024/01/01 05:20:07;;;;;;;;;;;;;;;20.47;38.50;99723.19;5031013;28;19922;-43
2024/01/01 05:22:33;;;;;;;;;;;;;;;20.45;38.57;99722.56;5025443;28;19917;-45
2024/01/01 05:24:58;;;;;;;;;;;;;;;20.45;38.65;99721.72;5025245;28;19952;-47
2024/01/01 05:27:23;;;;;;;;;;;;;;;20.42;38.56;99714.88;5025814;28;19916;-46
2024/01/01 05:29:48;;;;;;;;;;;;;;;20.41;38.62;99726.72;5093770;28;19916;-46
2024/01/01 05:32:14;;;;;;;;;;;;;;;20.40;38.38;99730.44;5086430;28;19952;-47
2024/01/01 05:34:42;;;;;;;;;;;;;;;20.40;38.33;99735.84;5038534;28;19914;-46
2024/01/01 05:37:07;;;;;;;;;;;;;;;20.39;38.49;99739.59;5036498;28;19925;-45
2024/01/01 05:39:33;;;;;;;;;;;;;;;20.37;38.36;99732.72;5021283;28;19918;-45
2024/01/01 05:41:58;;;;;;;;;;;;;;;20.34;38.47;99730.44;5022470;28;19913;-44
2024/01/01 05:44:23;;;;;;;;;;;;;;;20.33;38.35;99726.06;5044308;28;19913;-47
2024/01/01 05:46:49;;;;;;;;;;;;;;;20.31;38.45;99737.09;5068536;28;19914;-46
2024/01/01 05:49:14;;;;;;;;;;;;;;;20.29;38.40;99744.56;5040845;28;19912;-45
2024/01/01 05:51:40;;;;;;;;;;;;;;;20.29;38.70;99751.81;5047756;28;19920;-45
2024/01/01 05:54:05;;;;;;;;;;;;;;;20.28;38.63;99755.56;5020060;28;19953;-42
2024/01/01 05:56:30;;;;;;;;;;;;;;;20.26;38.36;99750.34;5011965;28;19924;-44
2024/01/01 05:58:55;;;;;;;;;;;;;;;20.24;38.58;99755.13;5029140;28;19943;-43
2024/01/01 06:01:21;;;;;;;;;;;;;;;20.22;38.43;99755.34;5019815;28;19916;-44
2024/01/01 06:03:47;;;;;;;;;;;;;;;20.21;38.43;99752.84;5020080;28;19920;-45
2024/01/01 06:06:12;;;;;;;;;;;;;;;20.20;38.75;99753.88;5043248;28;19949;-45
2024/01/01 06:08:37;;;;;;;;;;;;;;;20.19;38.49;99758.47;5024359;28;19914;-50
2024/01/01 06:11:03;;;;;;;;;;;;;;;20.18;38.77;99764.91;5010941;28;19917;-44
2024/01/01 06:13:28;;;;;;;;;;;;;;;20.17;38.59;99779.41;5011582;28;19913;-46
2024/01/01 06:15:53;;;;;;;;;;;;;;;20.15;38.58;99775.25;5037157;28;20300;-45
2024/01/01 06:18:19;;;;;;;;;;;;;;;20.14;38.56;99777.13;5042454;28;19943;-44
2024/01/01 06:20:45;;;;;;;;;;;;;;;20.14;38.66;99785.22;5014604;28;19920;-44
2024/01/01 06:23:10;;;;;;;;;;;;;;;20.12;38.57;99789.97;5067948;28;19914;-47
2024/01/01 06:25:35;;;;;;;;;;;;;;;20.12;38.91;99797.25;5013578;28;19921;-43
2024/01/01 06:28:00;;;;;;;;;;;;;;;20.11;38.75;99801.00;5006465;28;19914;-45
2024/01/01 06:30:26;;;;;;;;;;;;;;;20.09;38.94;99800.34;5028680;28;20016;-46
2024/01/01 06:32:51;;;;;;;;;;;;;;;20.08;38.86;99806.78;5022587;28;20020;-44
2024/01/01 06:35:16;;;;;;;;;;;;;;;20.07;38.81;99815.94;5016282;28;19920;-45
2024/01/01 06:37:41;;;;;;;;;;;;;;;20.06;38.95;99815.09;5036858;28;19955;-45
2024/01/01 06:40:07;;;;;;;;;;;;;;;20.06;39.00;99822.38;5036545;28;19963;-45
2024/01/01 06:42:32;;;;;;;;;;;;;;;20.05;38.89;99829.63;5012131;28;19982;-46
2024/01/01 06:45:00;;;;;;;;;;;;;;;20.04;39.18;99830.63;5026865;28;19979;-43
2024/01/01 06:47:25;;;;;;;;;;;;;;;20.04;38.96;99829.81;5029680;28;20012;-42
2024/01/01 06:49:50;;;;;;;;;;;;;;;20.02;38.93;99830.03;5013528;28;20528;-43
2024/01/01 06:52:15;;;;;;;;;;;;;;;20.03;38.80;99839.78;5032980;28;19913;-47
2024/01/01 06:54:41;;;;;;;;;;;;;;;20.03;38.94;99825.47;5025665;28;20035;-45
2024/01/01 06:57:14;;;;;;;;;;;;;;;20.02;39.09;99840.81;5102040;27;1923508;-45
2024/01/01 06:59:40;;;;;;;;;;;;;;;20.01;39.04;99835.59;5170110;27;19919;-43
2024/01/01 07:02:05;;;;;;;;;;;;;;;20.04;38.87;99848.69;5171025;27;20016;-46
2024/01/01 07:04:30;;;;;;;;;;;;;;;20.03;38.91;99845.16;5172990;27;19911;-45
2024/01/01 07:06:56;;;;;;;;;;;;;;;20.04;38.95;99854.09;5172864;27;19911;-44
2024/01/01 07:09:21;;;;;;;;;;;;;;;20.04;38.75;99870.28;5168786;27;19994;-46
2024/01/01 07:11:46;;;;;;;;;;;;;;;20.05;38.94;99871.94;5165843;27;19911;-45
2024/01/01 07:14:11;;;;;;;;;;;;;;;20.05;38.86;99866.53;5172144;27;19911;-46
2024/01/01 07:16:37;;;;;;;;;;;;;;;20.05;38.83;99872.81;5174771;27;19922;-45
2024/01/01 07:19:02;;;;;;;;;;;;;;;20.06;38.93;99876.34;5170216;27;19915;-47
2024/01/01 07:21:27;;;;;;;;;;;;;;;20.09;39.15;99889.41;5170053;27;19911;-46
2024/01/01 07:23:53;;;;;;;;;;;;;;;20.09;39.04;99895.66;5167231;27;19915;-44
2024/01/01 07:26:18;;;;;;;;;;;;;;;20.11;39.17;99892.75;5171525;27;19919;-46
2024/01/01 07:28:43;;;;;;;;;;;;;;;20.11;39.24;99901.66;5171292;27;20429;-46
2024/01/01 07:31:09;;;;;;;;;;;;;;;20.11;39.38;99909.75;5170958;27;19934;-46
2024/01/01 07:33:35;;;;;;;;;;;;;;;20.12;39.65;99919.50;5166076;27;19915;-45
2024/01/01 07:36:00;;;;;;;;;;;;;;;20.13;39.54;99925.75;5170188;27;20377;-44
2024/01/01 07:38:25;;;;;;;;;;;;;;;20.14;39.58;99927.44;5167105;27;19912;-47
2024/01/01 07:40:51;;;;;;;;;;;;;;;20.16;39.84;99925.34;5172261;27;19915;-47
2024/01/01 07:43:16;;;;;;;;;;;;;;;20.17;39.81;99924.31;5160073;27;19911;-44
2024/01/01 07:45:41;;;;;;;;;;;;;;;20.19;39.93;99933.06;5167016;27;19911;-49
2024/01/01 07:48:06;;;;;;;;;;;;;;;20.20;39.80;99932.00;5169042;27;19914;-48
2024/01/01 07:50:32;;;;;;;;;;;;;;;20.23;40.06;99935.16;5167748;27;19918;-45
2024/01/01 07:52:57;;;;;;;;;;;;;;;20.26;39.99;99933.91;5169728;27;19926;-45
2024/01/01 07:55:22;;;;;;;;;;;;;;;20.29;39.86;99944.31;5165953;27;19915;-46
2024/01/01 07:57:47;;;;;;;;;;;;;;;20.32;39.93;99946.59;5167088;27;19911;-48
2024/01/01 08:00:13;;;;;;;;;;;;;;;20.36;40.09;99944.34;5170135;27;19919;-45
2024/01/01 08:02:38;;;;;;;;;;;;;;;20.38;40.04;99956.59;5164553;27;19919;-46
2024/01/01 08:05:03;;;;;;;;;;;;;;;20.41;40.00;99955.38;5166039;27;20306;-49
2024/01/01 08:07:29;;;;;;;;;;;;;;;20.42;40.14;99960.56;5165373;27;19933;-47
2024/01/01 08:09:54;;;;;;;;;;;;;;;20.44;40.06;99961.19;5155156;27;19940;-49
2024/01/01 08:12:19;;;;;;;;;;;;;;;20.47;40.11;99968.03;5155716;27;19926;-49
2024/01/01 08:14:44;;;;;;;;;;;;;;;20.50;39.76;99954.19;5155944;27;19915;-45
2024/01/01 08:17:09;;;;;;;;;;;;;;;20.53;39.94;99966.47;5135891;27;19919;-46
2024/01/01 08:19:35;;;;;;;;;;;;;;;20.56;39.71;99971.44;5151655;27;19934;-50
2024/01/01 08:22:00;;;;;;;;;;;;;;;20.58;39.56;99961.28;5152414;27;19915;-45
2024/01/01 08:24:25;;;;;;;;;;;;;;;20.61;39.84;99963.56;5153567;27;19922;-49
2024/01/01 08:26:50;;;;;;;;;;;;;;;20.62;39.85;99974.16;5150585;27;19918;-48
2024/01/01 08:29:15;;;;;;;;;;;;;;;20.65;39.47;99976.47;5152524;27;19922;-46
2024/01/01 08:31:41;;;;;;;;;;;;;;;20.68;39.73;99980.63;5152652;27;20346;-51
2024/01/01 08:34:06;;;;;;;;;;;;;;;20.70;39.45;99987.50;5152805;27;20006;-46
2024/01/01 08:36:31;;;;;;;;;;;;;;;20.74;39.48;99984.41;5153817;27;19936;-47
2024/01/01 08:38:56;;;;;;;;;;;;;;;20.78;39.65;99982.97;5159224;27;19918;-48
2024/01/01 08:41:21;;;;;;;;;;;;;;;20.79;39.67;99981.91;5145443;27;19970;-47
2024/01/01 08:43:50;;;;;;;;;;;;;;;20.81;39.35;99994.16;5151619;27;19917;-49
2024/01/01 08:46:15;;;;;;;;;;;;;;;20.85;39.51;99990.03;5150963;27;19972;-49
2024/01/01 08:48:40;;;;;;;;;;;;;;;20.88;39.30;99991.50;5151180;27;20446;-45
2024/01/01 08:51:05;;;;;;;;;;;;;;;20.91;39.29;99994.63;5156444;27;19951;-45
2024/01/01 08:53:32;;;;;;;;;;;;;;;20.94;38.88;99993.38;5158270;27;19911;-48
2024/01/01 08:55:57;;;;;;;;;;;;;;;20.97;39.01;100001.91;5137414;27;19940;-46
2024/01/01 08:58:22;;;;;;;;;;;;;;;21.01;39.14;100006.91;5151526;27;19947;-45
2024/01/01 09:00:47;;;;;;;;;;;;;;;21.03;38.74;100002.97;5154806;27;19943;-46
2024/01/01 09:03:12;;;;;;;;;;;;;;;21.06;38.85;99999.84;5151660;27;19998;-46
2024/01/01 09:05:38;;;;;;;;;;;;;;;21.11;38.53;100004.63;5153816;27;20380;-46
2024/01/01 09:08:03;;;;;;;;;;;;;;;21.12;38.77;100023.38;5152177;27;19932;-48
2024/01/01 09:10:28;;;;;;;;;;;;;;;21.17;38.50;100020.03;5153958;27;19955;-49
2024/01/01 09:12:55;;;;;;;;;;;;;;;21.19;38.66;100026.91;5152782;27;19923;-44
2024/01/01 09:15:20;;;;;;;;;;;;;;;21.21;38.41;100032.94;5152698;27;19916;-45
2024/01/01 09:17:45;;;;;;;;;;;;;;;21.23;38.23;100038.97;5156483;27;19936;-46
2024/01/01 09:20:10;;;;;;;;;;;;;;;21.26;38.49;100047.72;5131484;27;20190;-47
2024/01/01 09:22:36;;;;;;;;;;;;;;;21.27;38.27;100039.38;5139016;27;20088;-45
2024/01/01 09:25:01;;;;;;;;;;;;;;;21.28;38.13;100040.22;5157011;27;19922;-46
2024/01/01 09:27:26;;;;;;;;;;;;;;;21.30;38.22;100057.91;5151965;27;19919;-46
2024/01/01 09:29:51;;;;;;;;;;;;;;;21.31;38.18;100062.28;5152087;27;20370;-46
2024/01/01 09:32:17;;;;;;;;;;;;;;;21.33;38.03;100064.84;5154325;27;19955;-45
2024/01/01 09:34:42;;;;;;;;;;;;;;;21.37;37.96;100052.56;5147495;27;19915;-46
2024/01/01 09:37:07;;;;;;;;;;;;;;;21.37;38.07;100056.09;5153210;27;19924;-45
2024/01/01 09:39:32;;;;;;;;;;;;;;;21.41;37.63;100062.75;5151508;27;19933;-44
2024/01/01 09:42:01;;;;;;;;;;;;;;;21.43;37.82;100068.78;5146325;27;19911;-46
2024/01/01 09:44:26;;;;;;;;;;;;;;;21.43;37.69;100068.78;5134857;27;19922;-44
2024/01/01 09:46:51;;;;;;;;;;;;;;;21.46;37.82;100079.19;5157737;27;19915;-43
2024/01/01 09:49:16;;;;;;;;;;;;;;;21.49;37.99;100082.50;5151108;27;20313;-47
2024/01/01 09:51:41;;;;;;;;;;;;;;;21.52;37.64;100087.53;5138279;27;19918;-44
2024/01/01 09:54:07;;;;;;;;;;;;;;;21.53;37.53;100084.59;5152621;27;19919;-44
2024/01/01 09:56:33;;;;;;;;;;;;;;;21.55;37.88;100087.94;5151187;27;20022;-47
2024/01/01 09:58:58;;;;;;;;;;;;;;;21.56;37.67;100094.19;5151657;27;19984;-49
2024/01/01 10:01:23;;;;;;;;;;;;;;;21.58;37.73;100087.53;5147166;27;19941;-48
2024/01/01 10:04:07;;;;;;;;;;;;;;;21.61;37.73;100105.22;5151439;27;19915;-49
2024/01/01 10:06:34;;;;;;;;;;;;;;;21.63;37.72;100103.16;5147282;27;19915;-49
2024/01/01 10:09:09;;;;;;;;;;;;;;;21.65;37.60;100117.28;5151283;27;20013;-47
2024/01/01 10:11:35;;;;;;;;;;;;;;;21.67;37.38;100123.34;5152160;27;19922;-49
2024/01/01 10:14:03;;;;;;;;;;;;;;;21.70;37.53;100120.22;5151486;27;19939;-50
2024/01/01 10:16:29;;;;;;;;;;;;;;;21.72;37.15;100118.16;5147044;27;19919;-50
2024/01/01 10:18:56;;;;;;;;;;;;;;;21.73;37.33;100130.63;5154104;27;19922;-46
2024/01/01 10:21:25;;;;;;;;;;;;;;;21.77;37.03;100144.59;5148956;27;19912;-48
2024/01/01 10:23:50;;;;;;;;;;;;;;;21.78;37.40;100143.53;5150597;27;19923;-48
2024/01/01 10:26:15;;;;;;;;;;;;;;;21.80;36.95;100138.78;5152201;27;19957;-51
2024/01/01 10:28:40;;;;;;;;;;;;;;;21.79;37.10;100145.19;5152618;27;19929;-47
2024/01/01 10:31:06;;;;;;;;;;;;;;;21.81;37.12;100154.78;5135942;27;19920;-47
2024/01/01 10:33:32;;;;;;;;;;;;;;;21.82;37.23;100142.09;5156445;27;19972;-45
2024/01/01 10:36:01;;;;;;;;;;;;;;;21.82;37.22;100140.22;5122619;27;19978;-48
2024/01/01 10:38:26;;;;;;;;;;;;;;;21.84;37.12;100151.69;5146414;27;20011;-50
2024/01/01 10:40:54;;;;;;;;;;;;;;;21.85;37.37;100138.97;5135759;27;19919;-47
2024/01/01 10:43:20;;;;;;;;;;;;;;;21.86;37.43;100137.94;5149921;27;19911;-49
2024/01/01 10:45:46;;;;;;;;;;;;;;;21.89;37.21;100149.19;5133954;27;19922;-48
2024/01/01 10:48:11;;;;;;;;;;;;;;;21.90;37.12;100150.00;5134316;27;20528;-45
2024/01/01 10:50:37;;;;;;;;;;;;;;;21.92;37.36;100150.66;5130916;27;19914;-45
2024/01/01 10:53:15;;;;;;;;;;;;;;;21.94;37.39;100162.91;5132718;27;19919;-50
2024/01/01 10:56:09;;;;;;;;;;;;;;;21.95;37.14;100170.00;5146681;27;19920;-50
2024/01/01 10:58:54;;;;;;;;;;;;;;;21.99;37.25;100170.41;5136176;27;19941;-49
2024/01/01 11:01:19;;;;;;;;;;;;;;;22.01;36.96;100181.06;5152070;27;19919;-49
2024/01/01 11:03:48;;;;;;;;;;;;;;;22.03;36.92;100168.97;5129582;27;19926;-49
2024/01/01 11:06:24;;;;;;;;;;;;;;;22.06;37.10;100170.44;5131241;27;20010;-50
2024/01/01 11:08:49;;;;;;;;;;;;;;;22.07;37.02;100162.09;5147809;27;19930;-51
2024/01/01 11:11:23;;;;;;;;;;;;;;;22.10;37.19;100164.41;5151924;27;19915;-51
2024/01/01 11:13:48;;;;;;;;;;;;;;;22.12;36.91;100167.75;5135955;27;19912;-51
2024/01/01 11:16:13;;;;;;;;;;;;;;;22.16;36.69;100157.34;5152766;27;19915;-48
2024/01/01 11:18:39;;;;;;;;;;;;;;;22.19;36.97;100170.47;5158493;27;20009;-51
2024/01/01 11:21:07;;;;;;;;;;;;;;;22.23;36.65;100174.44;5156437;27;19957;-50
2024/01/01 11:23:39;;;;;;;;;;;;;;;22.27;36.94;100180.25;5154951;27;19911;-50
2024/01/01 11:26:26;;;;;;;;;;;;;;;22.30;36.89;100185.25;5146507;27;19915;-49
2024/01/01 11:28:52;;;;;;;;;;;;;;;22.34;36.49;100187.31;5156492;27;19915;-52
2024/01/01 11:31:17;;;;;;;;;;;;;;;22.35;36.43;100180.88;5137232;27;19922;-52
2024/01/01 11:33:43;;;;;;;;;;;;;;;22.36;36.79;100189.84;5152700;27;19923;-52
2024/01/01 11:36:09;;;;;;;;;;;;;;;22.43;36.56;100198.81;5153805;27;19953;-50
2024/01/01 11:38:35;;;;;;;;;;;;;;;22.47;36.80;100191.91;5149281;27;19950;-50
2024/01/01 11:41:00;;;;;;;;;;;;;;;22.51;36.85;100193.16;5153302;27;19911;-51
2024/01/01 11:43:25;;;;;;;;;;;;;;;22.56;36.71;100196.09;5158842;27;20309;-51
2024/01/01 11:45:54;;;;;;;;;;;;;;;22.57;36.70;100196.91;5153748;27;20429;-49
2024/01/01 11:48:19;;;;;;;;;;;;;;;22.62;36.73;100205.25;5156892;27;19978;-46
2024/01/01 11:50:46;;;;;;;;;;;;;;;22.66;36.55;100199.19;5157736;27;19915;-50
2024/01/01 11:53:14;;;;;;;;;;;;;;;22.73;36.52;100210.03;5152166;27;19917;-50
2024/01/01 11:55:39;;;;;;;;;;;;;;;22.76;36.44;100203.34;5152501;27;20009;-50
2024/01/01 11:58:04;;;;;;;;;;;;;;;22.79;36.47;100202.91;5156846;27;19912;-49
2024/01/01 12:00:29;;;;;;;;;;;;;;;22.80;36.26;100213.53;5155213;27;19982;-48
2024/01/01 12:02:54;;;;;;;;;;;;;;;22.84;36.43;100212.06;5137280;27;19915;-49
2024/01/01 12:05:20;;;;;;;;;;;;;;;22.88;35.98;100224.16;5135364;27;19919;-50
2024/01/01 12:07:45;;;;;;;;;;;;;;;22.91;35.81;100221.06;5151647;27;19937;-48
2024/01/01 12:10:11;;;;;;;;;;;;;;;22.90;36.22;100224.84;5153558;27;19907;-51
2024/01/01 12:12:42;;;;;;;;;;;;;;;22.91;35.78;100215.66;5157375;27;19915;-51
2024/01/01 12:15:21;;;;;;;;;;;;;;;22.92;35.88;100217.31;5138827;27;19933;-51
2024/01/01 12:17:50;;;;;;;;;;;;;;;22.89;36.22;100217.69;5154563;27;19957;-51
2024/01/01 12:20:16;;;;;;;;;;;;;;;22.92;36.04;100222.72;5157761;27;19919;-50
2024/01/01 12:22:41;;;;;;;;;;;;;;;22.95;35.86;100221.47;5153831;27;19914;-51
2024/01/01 12:25:11;;;;;;;;;;;;;;;23.01;35.91;100223.34;5151004;27;20387;-50
2024/01/01 12:27:37;;;;;;;;;;;;;;;23.05;35.84;100224.56;5140039;27;19959;-50
2024/01/01 12:30:03;;;;;;;;;;;;;;;23.09;35.73;100217.69;5142442;27;19915;-48
2024/01/01 12:32:28;;;;;;;;;;;;;;;23.11;35.94;100215.59;5152060;27;20344;-49
2024/01/01 12:34:54;;;;;;;;;;;;;;;23.12;35.61;100219.16;5153467;27;19915;-50
2024/01/01 12:37:19;;;;;;;;;;;;;;;23.13;35.72;100213.50;5145433;27;19926;-47